createdAt,value
2018-06-16T00:01:15.243Z,14.50
2018-06-16T00:03:43.721Z,14.40
2018-06-16T00:06:12.283Z,14.20
2018-06-16T00:08:40.746Z,14.20
2018-06-16T00:11:09.914Z,14.10
2018-06-16T00:13:38.410Z,14.10
2018-06-16T00:16:06.837Z,14.10
2018-06-16T00:18:35.316Z,14.10
2018-06-16T00:21:03.785Z,14.10
2018-06-16T00:23:32.250Z,14.00
2018-06-16T00:26:00.702Z,14.00
2018-06-16T00:28:29.119Z,14.00
2018-06-16T00:30:57.654Z,13.90
2018-06-16T00:33:26.110Z,14.00
2018-06-16T00:35:54.877Z,14.10
2018-06-16T00:38:23.523Z,14.10
2018-06-16T00:40:52.213Z,14.10
2018-06-16T00:43:21.090Z,14.20
2018-06-16T00:45:49.533Z,14.20
2018-06-16T00:48:18.026Z,14.10
2018-06-16T00:50:46.475Z,14.10
2018-06-16T00:53:15.074Z,14.20
2018-06-16T00:55:43.532Z,14.20
2018-06-16T00:58:12.078Z,14.20
2018-06-16T01:00:40.542Z,14.10
2018-06-16T01:03:09.105Z,14.00
2018-06-16T01:05:37.658Z,13.90
2018-06-16T01:08:06.792Z,13.80
2018-06-16T01:10:35.637Z,13.80
2018-06-16T01:13:04.691Z,13.80
2018-06-16T01:15:33.230Z,13.90
2018-06-16T01:18:01.740Z,14.00
2018-06-16T01:20:30.223Z,14.00
2018-06-16T01:22:58.755Z,14.00
2018-06-16T01:25:27.272Z,13.90
2018-06-16T01:27:55.771Z,13.70
2018-06-16T01:30:24.475Z,13.70
2018-06-16T01:32:53.009Z,13.80
2018-06-16T01:35:21.617Z,13.70
2018-06-16T01:37:50.339Z,13.60
2018-06-16T01:40:18.818Z,13.70
2018-06-16T01:42:47.269Z,13.70
2018-06-16T01:45:15.803Z,13.70
2018-06-16T01:47:44.358Z,13.60
2018-06-16T01:50:12.825Z,13.60
2018-06-16T01:52:41.361Z,13.70
2018-06-16T01:55:09.822Z,13.70
2018-06-16T01:57:38.355Z,13.60
2018-06-16T02:02:57.136Z,13.80
2018-06-16T02:05:25.691Z,13.90
2018-06-16T02:07:54.219Z,13.90
2018-06-16T02:10:22.832Z,13.90
2018-06-16T02:12:51.297Z,14.00
2018-06-16T02:15:19.731Z,14.10
2018-06-16T02:17:48.207Z,14.10
2018-06-16T02:20:16.690Z,14.20
2018-06-16T02:22:45.084Z,14.20
2018-06-16T02:25:13.506Z,14.20
2018-06-16T02:27:41.956Z,14.20
2018-06-16T02:30:10.497Z,14.20
2018-06-16T02:32:39.044Z,14.10
2018-06-16T02:35:07.571Z,14.20
2018-06-16T02:37:36.008Z,14.10
2018-06-16T02:40:04.495Z,14.10
2018-06-16T02:42:32.966Z,14.00
2018-06-16T02:45:01.577Z,14.10
2018-06-16T02:47:30.021Z,14.10
2018-06-16T02:49:58.464Z,14.10
2018-06-16T02:52:26.940Z,14.10
2018-06-16T02:54:55.396Z,14.20
2018-06-16T02:57:24.538Z,14.20
2018-06-16T02:59:53.070Z,14.20
2018-06-16T03:02:21.571Z,14.20
2018-06-16T03:04:50.093Z,14.20
2018-06-16T03:07:18.748Z,14.20
2018-06-16T03:09:47.205Z,14.20
2018-06-16T03:12:15.689Z,14.30
2018-06-16T03:14:44.127Z,14.30
2018-06-16T03:17:12.642Z,14.30
2018-06-16T03:19:41.127Z,14.20
2018-06-16T03:22:09.697Z,14.30
2018-06-16T03:24:38.204Z,14.30
2018-06-16T03:27:06.765Z,14.30
2018-06-16T03:29:35.401Z,14.30
2018-06-16T03:32:03.911Z,14.30
2018-06-16T03:34:32.499Z,14.30
2018-06-16T03:37:00.932Z,14.20
2018-06-16T03:39:29.408Z,14.20
2018-06-16T03:41:57.897Z,14.20
2018-06-16T03:44:26.533Z,14.20
2018-06-16T03:46:54.998Z,14.30
2018-06-16T03:49:23.461Z,14.30
2018-06-16T03:51:51.959Z,14.40
2018-06-16T03:54:20.484Z,14.40
2018-06-16T03:56:49.027Z,14.50
2018-06-16T03:59:17.543Z,14.60
2018-06-16T04:01:46.038Z,14.60
2018-06-16T04:04:15.064Z,14.60
2018-06-16T04:06:43.538Z,14.70
2018-06-16T04:09:12.279Z,14.80
2018-06-16T04:11:40.752Z,14.90
2018-06-16T04:14:09.242Z,15.00
2018-06-16T04:16:37.827Z,15.10
2018-06-16T04:19:06.311Z,15.20
2018-06-16T04:21:35.039Z,15.30
2018-06-16T04:24:03.629Z,15.30
2018-06-16T04:26:32.067Z,15.40
2018-06-16T04:29:00.592Z,15.50
2018-06-16T04:31:29.187Z,15.50
2018-06-16T04:33:57.750Z,15.60
2018-06-16T04:36:26.187Z,15.60
2018-06-16T04:38:54.728Z,15.60
2018-06-16T04:41:23.169Z,15.60
2018-06-16T04:43:51.712Z,15.60
2018-06-16T04:46:20.101Z,15.70
2018-06-16T04:48:48.623Z,15.80
2018-06-16T04:51:17.121Z,15.90
2018-06-16T04:53:45.601Z,16.00
2018-06-16T04:56:14.203Z,16.10
2018-06-16T04:58:42.813Z,16.20
2018-06-16T05:01:11.324Z,16.40
2018-06-16T05:03:39.804Z,16.50
2018-06-16T05:06:08.284Z,16.60
2018-06-16T05:08:36.723Z,16.70
2018-06-16T05:11:05.179Z,16.80
2018-06-16T05:13:33.677Z,16.90
2018-06-16T05:16:02.238Z,17.00
2018-06-16T05:18:30.706Z,16.90
2018-06-16T05:20:59.230Z,17.00
2018-06-16T05:23:27.900Z,17.20
2018-06-16T05:25:56.655Z,17.40
2018-06-16T05:28:25.870Z,17.80
2018-06-16T05:30:54.614Z,19.30
2018-06-16T05:33:23.072Z,19.70
2018-06-16T05:35:58.547Z,19.60
2018-06-16T05:38:27.443Z,19.60
2018-06-16T05:40:55.966Z,20.00
2018-06-16T05:43:24.459Z,20.10
2018-06-16T05:45:52.980Z,19.80
2018-06-16T05:48:21.448Z,19.70
2018-06-16T05:50:49.973Z,19.60
2018-06-16T05:53:19.709Z,19.70
2018-06-16T05:55:48.142Z,19.70
2018-06-16T05:58:16.600Z,20.10
2018-06-16T06:00:45.043Z,20.40
2018-06-16T06:03:13.580Z,20.70
2018-06-16T06:05:42.164Z,21.30
2018-06-16T06:10:38.823Z,22.60
2018-06-16T06:13:07.292Z,22.30
2018-06-16T06:15:35.981Z,23.00
2018-06-16T06:18:04.502Z,23.20
2018-06-16T06:20:32.932Z,22.80
2018-06-16T06:23:01.614Z,23.30
2018-06-16T06:25:30.508Z,24.20
2018-06-16T06:27:58.987Z,24.30
2018-06-16T06:30:27.536Z,24.00
2018-06-16T06:32:56.033Z,23.80
2018-06-16T06:35:24.501Z,24.20
2018-06-16T06:37:53.263Z,24.30
2018-06-16T06:40:21.772Z,24.50
2018-06-16T06:42:50.221Z,25.40
2018-06-16T06:45:18.769Z,25.90
2018-06-16T06:47:47.366Z,26.20
2018-06-16T06:50:15.927Z,27.40
2018-06-16T06:52:44.395Z,28.50
2018-06-16T06:55:12.908Z,28.60
2018-06-16T06:57:41.372Z,28.40
2018-06-16T07:00:09.823Z,28.00
2018-06-16T07:02:38.292Z,27.70
2018-06-16T07:05:07.275Z,27.80
2018-06-16T07:07:35.710Z,28.90
2018-06-16T07:10:04.284Z,29.30
2018-06-16T07:12:33.249Z,30.00
2018-06-16T07:15:02.088Z,30.80
2018-06-16T07:17:30.592Z,32.00
2018-06-16T07:19:59.389Z,31.90
2018-06-16T07:22:27.856Z,32.10
2018-06-16T07:24:56.380Z,32.50
2018-06-16T07:27:24.791Z,33.10
2018-06-16T07:29:53.309Z,33.40
2018-06-16T07:32:21.844Z,32.20
2018-06-16T07:34:50.519Z,31.10
2018-06-16T07:37:19.062Z,30.80
2018-06-16T07:39:47.870Z,30.10
2018-06-16T07:42:16.326Z,29.50
2018-06-16T07:44:44.816Z,29.20
2018-06-16T07:47:13.341Z,28.70
2018-06-16T07:49:44.516Z,28.70
2018-06-16T07:52:13.085Z,28.40
2018-06-16T07:54:41.667Z,29.10
2018-06-16T07:57:10.117Z,29.60
2018-06-16T07:59:38.770Z,30.90
2018-06-16T08:02:07.554Z,31.50
2018-06-16T08:04:36.093Z,32.00
2018-06-16T08:07:04.682Z,32.70
2018-06-16T08:09:33.741Z,33.00
2018-06-16T08:12:02.161Z,32.50
2018-06-16T08:14:30.608Z,32.40
2018-06-16T08:16:59.037Z,32.80
2018-06-16T08:19:27.539Z,32.50
2018-06-16T08:21:55.988Z,32.70
2018-06-16T08:24:24.435Z,32.70
2018-06-16T08:26:52.860Z,32.50
2018-06-16T08:29:21.274Z,32.70
2018-06-16T08:31:49.709Z,33.50
2018-06-16T08:34:18.257Z,33.50
2018-06-16T08:36:53.208Z,34.00
2018-06-16T08:39:21.664Z,34.00
2018-06-16T08:41:50.181Z,34.00
2018-06-16T08:44:18.623Z,33.30
2018-06-16T08:46:47.102Z,32.80
2018-06-16T08:49:15.508Z,32.20
2018-06-16T08:51:43.995Z,31.70
2018-06-16T08:54:12.440Z,32.50
2018-06-16T08:56:40.984Z,31.50
2018-06-16T08:59:09.515Z,31.60
2018-06-16T09:01:37.964Z,33.00
2018-06-16T09:04:06.482Z,33.60
2018-06-16T09:06:35.045Z,33.20
2018-06-16T09:09:04.098Z,33.20
2018-06-16T09:11:32.567Z,33.50
2018-06-16T09:14:01.102Z,32.90
2018-06-16T09:16:29.597Z,32.90
2018-06-16T09:18:58.257Z,32.70
2018-06-16T09:21:26.740Z,33.20
2018-06-16T09:23:55.163Z,31.80
2018-06-16T09:26:23.637Z,31.90
2018-06-16T09:28:52.130Z,32.70
2018-06-16T09:31:20.579Z,33.10
2018-06-16T09:33:52.036Z,33.60
2018-06-16T09:36:20.536Z,33.20
2018-06-16T09:38:48.984Z,33.90
2018-06-16T09:41:17.492Z,34.00
2018-06-16T09:43:45.980Z,33.20
2018-06-16T09:46:14.521Z,32.30
2018-06-16T09:48:43.221Z,32.30
2018-06-16T09:51:11.714Z,31.40
2018-06-16T09:54:14.173Z,30.70
2018-06-16T09:56:42.678Z,31.40
2018-06-16T09:59:11.197Z,30.80
2018-06-16T10:01:39.771Z,30.10
2018-06-16T10:04:08.404Z,30.50
2018-06-16T10:06:37.310Z,30.20
2018-06-16T10:09:07.742Z,31.00
2018-06-16T10:11:36.268Z,31.30
2018-06-16T10:14:05.059Z,31.50
2018-06-16T10:16:33.586Z,31.10
2018-06-16T10:19:02.158Z,31.70
2018-06-16T10:21:30.695Z,31.40
2018-06-16T10:23:59.379Z,31.40
2018-06-16T10:26:27.908Z,31.20
2018-06-16T10:28:56.431Z,31.50
2018-06-16T10:31:24.901Z,31.10
2018-06-16T10:33:53.513Z,31.00
2018-06-16T10:36:22.000Z,31.40
2018-06-16T10:38:50.543Z,31.40
2018-06-16T10:41:19.053Z,31.90
2018-06-16T10:43:47.651Z,32.60
2018-06-16T10:46:16.157Z,32.60
2018-06-16T10:48:44.767Z,32.10
2018-06-16T10:51:13.321Z,31.60
2018-06-16T10:53:41.922Z,32.30
2018-06-16T10:58:39.096Z,32.00
2018-06-16T11:01:07.853Z,32.50
2018-06-16T11:03:36.406Z,31.70
2018-06-16T11:06:04.862Z,30.90
2018-06-16T11:08:33.412Z,30.20
2018-06-16T11:11:01.947Z,29.50
2018-06-16T11:13:30.554Z,29.00
2018-06-16T11:15:59.061Z,28.90
2018-06-16T11:18:27.683Z,28.70
2018-06-16T11:20:56.504Z,28.40
2018-06-16T11:23:25.087Z,27.50
2018-06-16T11:25:53.637Z,26.90
2018-06-16T11:28:22.115Z,26.70
2018-06-16T11:30:50.589Z,26.40
2018-06-16T11:46:18.532Z,26.20
2018-06-16T11:48:47.113Z,26.10
2018-06-16T11:51:15.596Z,27.80
2018-06-16T11:53:44.057Z,27.30
2018-06-16T11:56:12.717Z,26.70
2018-06-16T11:58:41.452Z,26.00
2018-06-16T12:01:09.962Z,25.70
2018-06-16T12:03:38.621Z,25.60
2018-06-16T12:06:07.222Z,25.30
2018-06-16T12:08:35.765Z,25.00
2018-06-16T12:11:04.345Z,24.70
2018-06-16T12:13:32.922Z,24.50
2018-06-16T12:16:01.546Z,24.50
2018-06-16T12:18:30.017Z,24.70
2018-06-16T12:20:58.519Z,24.80
2018-06-16T12:23:26.958Z,25.00
2018-06-16T12:25:55.508Z,25.10
2018-06-16T12:28:24.293Z,25.00
2018-06-16T12:33:21.022Z,25.80
2018-06-16T12:35:49.565Z,26.10
2018-06-16T12:38:18.120Z,26.50
2018-06-16T12:40:46.551Z,27.20
2018-06-16T12:43:15.219Z,27.30
2018-06-16T12:45:44.147Z,26.60
2018-06-16T12:48:12.798Z,26.70
2018-06-16T12:50:41.405Z,26.50
2018-06-16T12:53:10.165Z,26.70
2018-06-16T12:55:38.808Z,26.80
2018-06-16T12:58:07.364Z,27.10
2018-06-16T13:00:36.261Z,27.10
2018-06-16T13:03:04.782Z,27.80
2018-06-16T13:18:34.551Z,27.80
2018-06-16T13:21:03.040Z,27.50
2018-06-16T13:23:31.502Z,27.60
2018-06-16T13:26:00.046Z,27.40
2018-06-16T13:28:28.576Z,26.50
2018-06-16T13:30:57.073Z,25.90
2018-06-16T13:33:25.980Z,25.90
2018-06-16T13:35:54.803Z,25.60
2018-06-16T13:38:23.322Z,25.70
2018-06-16T13:40:51.839Z,25.80
2018-06-16T13:43:20.547Z,25.90
2018-06-16T13:45:49.046Z,26.00
2018-06-16T13:48:17.559Z,26.30
2018-06-16T13:50:46.951Z,26.30
2018-06-16T13:55:44.645Z,26.30
2018-06-16T13:58:13.275Z,25.60
2018-06-16T14:00:41.841Z,25.10
2018-06-16T14:03:10.312Z,25.10
2018-06-16T14:05:38.855Z,25.30
2018-06-16T14:08:07.511Z,25.30
2018-06-16T14:10:36.501Z,25.20
2018-06-16T14:13:05.279Z,24.90
2018-06-16T14:15:33.950Z,24.70
2018-06-16T14:18:02.974Z,24.80
2018-06-16T14:20:31.430Z,24.90
2018-06-16T14:22:59.878Z,24.70
2018-06-16T14:25:28.409Z,24.50
2018-06-16T14:27:56.876Z,24.30
2018-06-16T14:30:25.329Z,24.30
2018-06-16T14:32:53.853Z,24.40
2018-06-16T14:35:22.348Z,24.70
2018-06-16T14:37:50.805Z,24.70
2018-06-16T14:40:19.719Z,24.60
2018-06-16T14:42:48.661Z,24.10
2018-06-16T14:45:17.263Z,23.90
2018-06-16T14:47:45.916Z,23.70
2018-06-16T14:50:14.400Z,23.60
2018-06-16T14:52:43.080Z,23.20
2018-06-16T14:55:11.517Z,23.00
2018-06-16T14:57:39.985Z,22.50
2018-06-16T15:00:08.582Z,22.20
2018-06-16T15:02:37.022Z,21.80
2018-06-16T15:05:12.021Z,21.60
2018-06-16T15:07:40.555Z,21.30
2018-06-16T15:10:09.038Z,21.30
2018-06-16T15:12:37.585Z,21.30
2018-06-16T15:15:06.019Z,21.40
2018-06-16T15:17:34.702Z,21.50
2018-06-16T15:20:03.301Z,21.60
2018-06-16T15:22:31.934Z,21.80
2018-06-16T15:25:00.561Z,22.10
2018-06-16T15:27:29.190Z,22.40
2018-06-16T15:32:25.768Z,23.60
2018-06-16T15:34:54.442Z,24.30
2018-06-16T15:37:23.373Z,24.50
2018-06-16T15:39:51.869Z,24.40
2018-06-16T15:42:20.401Z,24.60
2018-06-16T15:44:49.634Z,24.60
2018-06-16T15:47:18.120Z,24.50
2018-06-16T15:49:46.652Z,24.50
2018-06-16T15:54:43.432Z,24.50
2018-06-16T15:57:12.039Z,24.40
2018-06-16T15:59:40.581Z,24.00
2018-06-16T16:02:09.028Z,23.80
2018-06-16T16:04:37.553Z,23.60
2018-06-16T16:07:06.179Z,23.30
2018-06-16T16:09:34.713Z,23.10
2018-06-16T16:12:03.183Z,23.00
2018-06-16T16:14:31.659Z,23.10
2018-06-16T16:17:03.033Z,23.10
2018-06-16T16:22:00.090Z,23.20
2018-06-16T16:24:28.797Z,22.90
2018-06-16T16:26:57.275Z,22.70
2018-06-16T16:29:25.701Z,22.60
2018-06-16T16:31:54.235Z,22.40
2018-06-16T16:34:22.793Z,22.30
2018-06-16T16:36:51.659Z,22.30
2018-06-16T16:39:20.233Z,22.10
2018-06-16T16:41:48.933Z,21.90
2018-06-16T16:44:17.660Z,21.70
2018-06-16T16:46:46.173Z,21.60
2018-06-16T16:49:14.805Z,21.40
2018-06-16T16:51:43.408Z,21.40
2018-06-16T16:54:11.913Z,21.60
2018-06-16T16:56:40.480Z,21.70
2018-06-16T16:59:09.024Z,21.80
2018-06-16T17:01:37.827Z,21.70
2018-06-16T17:04:06.597Z,21.70
2018-06-16T17:06:35.272Z,21.60
2018-06-16T17:09:05.853Z,21.50
2018-06-16T17:11:34.507Z,21.60
2018-06-16T17:14:03.116Z,21.60
2018-06-16T17:16:31.679Z,21.90
2018-06-16T17:19:00.636Z,22.00
2018-06-16T17:23:57.728Z,22.30
2018-06-16T17:26:26.355Z,22.20
2018-06-16T17:28:54.987Z,21.90
2018-06-16T17:31:23.601Z,22.00
2018-06-16T17:33:52.709Z,22.10
2018-06-16T17:36:21.205Z,22.00
2018-06-16T17:38:50.151Z,22.10
2018-06-16T17:41:18.832Z,22.00
2018-06-16T17:43:47.404Z,21.90
2018-06-16T17:46:15.955Z,22.10
2018-06-16T17:48:44.588Z,22.10
2018-06-16T17:51:13.342Z,22.00
2018-06-16T17:53:42.472Z,21.70
2018-06-16T17:56:10.936Z,21.70
2018-06-16T18:01:08.108Z,21.50
2018-06-16T18:03:36.604Z,21.50
2018-06-16T18:06:05.129Z,21.50
2018-06-16T18:08:33.781Z,21.40
2018-06-16T18:11:02.289Z,21.30
2018-06-16T18:13:30.872Z,21.10
2018-06-16T18:15:59.829Z,21.20
2018-06-16T18:18:28.549Z,21.10
2018-06-16T18:20:57.005Z,21.00
2018-06-16T18:23:25.533Z,21.00
2018-06-16T18:25:54.474Z,20.90
2018-06-16T18:28:23.180Z,20.80
2018-06-16T18:30:51.744Z,20.80
2018-06-16T18:33:20.280Z,20.70
2018-06-16T18:35:49.011Z,20.50
2018-06-16T18:38:18.462Z,20.50
2018-06-16T18:40:46.981Z,20.50
2018-06-16T18:43:15.777Z,20.40
2018-06-16T18:45:44.317Z,20.10
2018-06-16T18:48:12.916Z,20.00
2018-06-16T18:50:41.551Z,19.90
2018-06-16T18:53:10.086Z,19.70
2018-06-16T18:55:38.640Z,19.50
2018-06-16T18:58:07.388Z,19.50
2018-06-16T19:00:35.920Z,19.40
2018-06-16T19:03:04.490Z,19.30
2018-06-16T19:05:33.112Z,19.20
2018-06-16T19:08:01.696Z,19.10
2018-06-16T19:10:30.146Z,19.00
2018-06-16T19:12:58.837Z,18.90
2018-06-16T19:15:27.350Z,18.80
2018-06-16T19:17:55.849Z,18.70
2018-06-16T19:20:24.510Z,18.60
2018-06-16T19:22:53.954Z,18.50
2018-06-16T19:25:24.496Z,18.60
2018-06-16T19:27:57.773Z,18.60
2018-06-16T19:30:26.270Z,18.50
2018-06-16T19:32:54.739Z,18.40
2018-06-16T19:35:23.493Z,18.30
2018-06-16T19:37:51.989Z,18.30
2018-06-16T19:40:20.557Z,18.20
2018-06-16T19:42:49.154Z,18.20
2018-06-16T19:45:19.242Z,18.20
2018-06-16T19:47:47.702Z,18.20
2018-06-16T19:50:16.228Z,18.10
2018-06-16T19:52:44.827Z,18.10
2018-06-16T19:55:13.363Z,18.10
2018-06-16T19:57:42.259Z,18.00
2018-06-16T20:00:11.265Z,18.00
2018-06-16T20:02:39.984Z,17.90
2018-06-16T20:05:08.541Z,17.90
2018-06-16T20:07:37.803Z,17.90
2018-06-16T20:10:07.006Z,17.90
2018-06-16T20:12:35.828Z,17.80
2018-06-16T20:15:04.684Z,17.80
2018-06-16T20:17:33.794Z,17.70
2018-06-16T20:20:02.437Z,17.70
2018-06-16T20:22:31.538Z,17.60
2018-06-16T20:25:00.400Z,17.50
2018-06-16T20:27:28.957Z,17.40
2018-06-16T20:29:57.522Z,17.30
2018-06-16T20:32:26.085Z,17.20
2018-06-16T20:34:55.078Z,17.10
2018-06-16T20:37:23.912Z,17.00
2018-06-16T20:39:52.515Z,16.90
2018-06-16T20:42:21.248Z,16.80
2018-06-16T20:44:50.207Z,16.70
2018-06-16T20:47:18.955Z,16.60
2018-06-16T20:49:48.072Z,16.60
2018-06-16T20:52:16.590Z,16.60
2018-06-16T20:54:45.146Z,16.50
2018-06-16T20:57:13.610Z,16.40
2018-06-16T20:59:42.298Z,16.40
2018-06-16T21:02:10.833Z,16.30
2018-06-16T21:04:39.293Z,16.30
2018-06-16T21:07:08.245Z,16.20
2018-06-16T21:09:37.060Z,16.10
2018-06-16T21:12:06.840Z,16.10
2018-06-16T21:14:35.507Z,16.00
2018-06-16T21:17:04.185Z,16.00
2018-06-16T21:19:32.802Z,15.90
2018-06-16T21:22:02.185Z,15.80
2018-06-16T21:24:30.977Z,15.80
2018-06-16T21:26:59.463Z,15.70
2018-06-16T21:29:28.036Z,15.60
2018-06-16T21:31:56.553Z,15.60
2018-06-16T21:34:25.094Z,15.60
2018-06-16T21:36:53.612Z,15.70
2018-06-16T21:39:22.421Z,15.60
2018-06-16T21:41:51.157Z,15.60
2018-06-16T21:44:20.252Z,15.50
2018-06-16T21:46:48.936Z,15.50
2018-06-16T21:49:17.499Z,15.40
2018-06-16T21:51:46.122Z,15.40
2018-06-16T21:54:15.146Z,15.30
2018-06-16T21:56:43.915Z,15.30
2018-06-16T21:59:12.828Z,15.20
2018-06-16T22:01:41.376Z,15.20
2018-06-16T22:04:10.261Z,15.20
2018-06-16T22:06:38.796Z,15.20
2018-06-16T22:09:09.752Z,15.30
2018-06-16T22:11:38.321Z,15.30
2018-06-16T22:14:07.156Z,15.30
2018-06-16T22:16:35.792Z,15.30
2018-06-16T22:19:04.945Z,15.40
2018-06-16T22:21:33.653Z,15.30
2018-06-16T22:24:02.249Z,15.40
2018-06-16T22:26:30.958Z,15.30
2018-06-16T22:28:59.488Z,15.30
2018-06-16T22:31:27.992Z,15.30
2018-06-16T22:33:56.474Z,15.30
2018-06-16T22:38:53.581Z,15.10
2018-06-16T22:41:22.095Z,15.10
2018-06-16T22:43:50.575Z,15.00
2018-06-16T22:46:19.048Z,15.00
2018-06-16T22:48:47.889Z,14.90
2018-06-16T22:51:16.378Z,14.90
2018-06-16T22:53:44.953Z,14.80
2018-06-16T22:56:13.495Z,14.70
2018-06-16T22:58:42.043Z,14.70
2018-06-16T23:01:10.537Z,14.60
2018-06-16T23:03:39.061Z,14.50
2018-06-16T23:06:07.744Z,14.40
2018-06-16T23:08:36.321Z,14.30
2018-06-16T23:11:04.809Z,14.20
2018-06-16T23:13:33.262Z,14.10
2018-06-16T23:16:01.840Z,14.00
2018-06-16T23:18:30.399Z,14.00
2018-06-16T23:20:59.061Z,14.00
2018-06-16T23:23:27.493Z,14.00
2018-06-16T23:25:56.139Z,14.00
2018-06-16T23:28:24.684Z,14.00
2018-06-16T23:30:53.218Z,14.10
2018-06-16T23:33:22.149Z,14.10
2018-06-16T23:35:50.677Z,14.10
2018-06-16T23:38:19.113Z,14.10
2018-06-16T23:40:47.609Z,14.10
2018-06-16T23:43:16.101Z,14.00
2018-06-16T23:45:44.618Z,14.00
2018-06-16T23:48:13.212Z,13.90
2018-06-16T23:50:41.741Z,13.90
2018-06-16T23:53:11.003Z,13.90
2018-06-16T23:55:39.490Z,13.90
2018-06-16T23:58:07.980Z,13.80
